createdAt,value
2017-04-15T00:00:17.903Z,13.31
2017-04-15T00:00:39.624Z,13.36
2017-04-15T00:01:01.450Z,13.44
2017-04-15T00:01:23.267Z,13.41
2017-04-15T00:01:45.102Z,13.43
2017-04-15T00:02:06.825Z,13.41
2017-04-15T00:02:28.621Z,13.36
2017-04-15T00:02:50.333Z,13.34
2017-04-15T00:03:12.086Z,13.36
2017-04-15T00:03:38.656Z,13.34
2017-04-15T00:04:00.398Z,13.34
2017-04-15T00:04:24.527Z,13.46
2017-04-15T00:04:46.240Z,13.45
2017-04-15T00:05:17.575Z,13.44
2017-04-15T00:05:39.278Z,13.38
2017-04-15T00:06:01.083Z,13.33
2017-04-15T00:06:32.425Z,13.27
2017-04-15T00:06:54.145Z,13.24
2017-04-15T00:07:20.633Z,13.24
2017-04-15T00:07:42.343Z,13.23
2017-04-15T00:08:08.928Z,13.22
2017-04-15T00:08:30.616Z,13.22
2017-04-15T00:08:57.106Z,13.14
2017-04-15T00:09:18.822Z,13.22
2017-04-15T00:09:50.179Z,13.16
2017-04-15T00:10:11.899Z,13.08
2017-04-15T00:10:38.390Z,13.07
2017-04-15T00:11:00.114Z,13.01
2017-04-15T00:11:31.464Z,13.00
2017-04-15T00:11:53.156Z,13.04
2017-04-15T00:12:19.671Z,13.04
2017-04-15T00:12:41.400Z,13.04
2017-04-15T00:13:12.721Z,13.08
2017-04-15T00:13:34.436Z,13.04
2017-04-15T00:13:56.180Z,12.96
2017-04-15T00:14:17.875Z,12.99
2017-04-15T00:14:39.661Z,13.05
2017-04-15T00:15:06.141Z,13.02
2017-04-15T00:15:27.844Z,13.04
2017-04-15T00:15:59.171Z,12.93
2017-04-15T00:16:20.905Z,12.90
2017-04-15T00:16:52.154Z,12.85
2017-04-15T00:17:13.979Z,12.89
2017-04-15T00:17:45.264Z,12.93
2017-04-15T00:18:06.953Z,12.93
2017-04-15T00:18:35.983Z,12.89
2017-04-15T00:18:57.726Z,12.92
2017-04-15T00:19:28.985Z,12.96
2017-04-15T00:19:50.794Z,13.03
2017-04-15T00:20:15.317Z,13.02
2017-04-15T00:20:37.057Z,13.08
2017-04-15T00:20:58.816Z,13.09
2017-04-15T00:21:25.404Z,13.08
2017-04-15T00:21:47.124Z,13.11
2017-04-15T00:22:18.396Z,12.93
2017-04-15T00:22:40.212Z,12.80
2017-04-15T00:23:01.961Z,12.73
2017-04-15T00:23:28.467Z,12.48
2017-04-15T00:23:50.274Z,12.41
2017-04-15T00:24:12.067Z,12.48
2017-04-15T00:24:38.503Z,12.49
2017-04-15T00:25:00.224Z,12.43
2017-04-15T00:25:22.017Z,12.56
2017-04-15T00:25:43.723Z,12.59
2017-04-15T00:26:05.480Z,12.60
2017-04-15T00:26:27.164Z,12.56
2017-04-15T00:26:53.926Z,12.48
2017-04-15T00:27:15.653Z,12.47
2017-04-15T00:27:42.131Z,12.47
2017-04-15T00:28:03.884Z,12.54
2017-04-15T00:28:30.425Z,12.54
2017-04-15T00:28:52.140Z,12.57
2017-04-15T00:29:18.643Z,12.62
2017-04-15T00:29:40.360Z,12.57
2017-04-15T00:30:02.202Z,12.41
2017-04-15T00:30:28.680Z,12.30
2017-04-15T00:30:50.400Z,12.33
2017-04-15T00:31:16.967Z,12.30
2017-04-15T00:31:38.679Z,12.27
2017-04-15T00:32:41.288Z,12.51
2017-04-15T00:33:48.581Z,12.45
2017-04-15T00:34:10.371Z,12.41
2017-04-15T00:34:41.627Z,12.41
2017-04-15T00:35:03.340Z,12.46
2017-04-15T00:35:27.578Z,12.56
2017-04-15T00:35:49.297Z,12.62
2017-04-15T00:36:20.591Z,12.57
2017-04-15T00:36:42.398Z,12.55
2017-04-15T00:37:04.127Z,12.57
2017-04-15T00:37:30.610Z,12.54
2017-04-15T00:37:52.423Z,12.49
2017-04-15T00:38:18.919Z,12.53
2017-04-15T00:38:40.653Z,12.51
2017-04-15T00:39:02.383Z,12.58
2017-04-15T00:39:24.168Z,12.62
2017-04-15T00:39:45.883Z,12.60
2017-04-15T00:40:07.642Z,12.65
2017-04-15T00:40:38.984Z,12.76
2017-04-15T00:41:31.991Z,12.81
2017-04-15T00:41:58.544Z,12.81
2017-04-15T00:42:20.320Z,12.72
2017-04-15T00:42:42.034Z,12.66
2017-04-15T00:43:13.365Z,12.64
2017-04-15T00:43:35.303Z,12.57
2017-04-15T00:44:37.931Z,12.66
2017-04-15T00:44:59.675Z,12.66
2017-04-15T00:45:30.971Z,12.66
2017-04-15T00:45:52.768Z,12.58
2017-04-15T00:46:14.480Z,12.45
2017-04-15T00:46:45.760Z,12.48
2017-04-15T00:47:09.942Z,12.51
2017-04-15T00:47:36.410Z,12.49
2017-04-15T00:47:58.160Z,12.55
2017-04-15T00:48:19.950Z,12.61
2017-04-15T00:48:46.457Z,12.76
2017-04-15T00:49:08.176Z,12.79
2017-04-15T00:49:34.751Z,12.80
2017-04-15T00:49:56.477Z,12.80
2017-04-15T00:50:22.957Z,12.87
2017-04-15T00:50:47.048Z,12.95
2017-04-15T00:51:16.351Z,12.98
2017-04-15T00:51:47.628Z,12.90
2017-04-15T00:52:09.451Z,12.86
2017-04-15T00:52:36.184Z,12.81
2017-04-15T00:52:57.871Z,12.77
2017-04-15T00:53:19.665Z,12.83
2017-04-15T00:53:55.694Z,12.81
2017-04-15T00:54:19.975Z,12.76
2017-04-15T00:54:41.771Z,12.73
2017-04-15T00:55:03.468Z,12.68
2017-04-15T00:55:25.188Z,12.77
2017-04-15T00:55:46.898Z,12.85
2017-04-15T00:56:08.694Z,12.86
2017-04-15T00:56:30.394Z,12.84
2017-04-15T00:56:52.090Z,12.86
2017-04-15T00:57:18.689Z,12.82
2017-04-15T00:57:40.421Z,12.81
2017-04-15T00:58:06.922Z,12.80
2017-04-15T00:58:28.605Z,12.91
2017-04-15T00:58:55.070Z,12.98
2017-04-15T00:59:16.849Z,13.01
2017-04-15T00:59:43.355Z,12.93
2017-04-15T01:00:05.053Z,12.76
2017-04-15T01:00:26.766Z,12.66
2017-04-15T01:00:48.489Z,12.66
2017-04-15T01:01:10.196Z,12.65
2017-04-15T01:01:31.910Z,12.67
2017-04-15T01:01:53.702Z,12.71
2017-04-15T01:02:15.410Z,12.73
2017-04-15T01:02:37.091Z,12.78
2017-04-15T01:02:58.793Z,12.86
2017-04-15T01:03:34.828Z,12.78
2017-04-15T01:03:57.091Z,12.73
2017-04-15T01:04:59.582Z,12.64
2017-04-15T01:05:21.378Z,12.57
2017-04-15T01:05:43.074Z,12.52
2017-04-15T01:06:09.583Z,12.58
2017-04-15T01:06:31.272Z,12.54
2017-04-15T01:07:36.119Z,12.75
2017-04-15T01:07:57.978Z,12.73
2017-04-15T01:08:24.457Z,12.73
2017-04-15T01:08:46.251Z,12.66
2017-04-15T01:09:07.933Z,12.63
2017-04-15T01:09:36.834Z,12.60
2017-04-15T01:10:03.398Z,12.60
2017-04-15T01:10:25.112Z,12.64
2017-04-15T01:10:46.834Z,12.57
2017-04-15T01:11:16.009Z,12.63
2017-04-15T01:11:37.727Z,12.57
2017-04-15T01:12:04.195Z,12.60
2017-04-15T01:12:25.893Z,12.57
2017-04-15T01:12:47.682Z,12.58
2017-04-15T01:13:09.403Z,12.60
2017-04-15T01:13:31.108Z,12.66
2017-04-15T01:13:57.676Z,12.63
2017-04-15T01:14:21.580Z,12.65
2017-04-15T01:14:43.277Z,12.63
2017-04-15T01:15:04.978Z,12.63
2017-04-15T01:15:26.690Z,12.63
2017-04-15T01:15:48.401Z,12.64
2017-04-15T01:16:10.126Z,12.60
2017-04-15T01:16:31.819Z,12.59
2017-04-15T01:16:58.481Z,12.65
2017-04-15T01:17:20.179Z,12.66
2017-04-15T01:17:41.861Z,12.61
2017-04-15T01:18:13.222Z,12.57
2017-04-15T01:18:34.955Z,12.54
2017-04-15T01:18:59.286Z,12.44
2017-04-15T01:19:20.965Z,12.37
2017-04-15T01:19:52.225Z,12.37
2017-04-15T01:20:14.021Z,12.39
2017-04-15T01:20:40.494Z,12.35
2017-04-15T01:21:05.007Z,12.34
2017-04-15T01:21:26.815Z,12.41
2017-04-15T01:21:48.546Z,12.28
2017-04-15T01:22:10.258Z,12.33
2017-04-15T01:22:41.496Z,12.38
2017-04-15T01:23:03.281Z,12.35
2017-04-15T01:23:34.533Z,12.41
2017-04-15T01:23:56.217Z,12.44
2017-04-15T01:24:18.025Z,12.46
2017-04-15T01:24:39.743Z,12.44
2017-04-15T01:25:01.435Z,12.37
2017-04-15T01:25:23.127Z,12.34
2017-04-15T01:25:44.933Z,12.34
2017-04-15T01:26:06.641Z,12.29
2017-04-15T01:26:28.352Z,12.26
2017-04-15T01:26:50.067Z,12.21
2017-04-15T01:27:11.842Z,12.25
2017-04-15T01:27:33.561Z,12.30
2017-04-15T01:27:55.268Z,12.33
2017-04-15T01:28:16.977Z,12.35
2017-04-15T01:28:38.786Z,12.40
2017-04-15T01:29:02.914Z,12.37
2017-04-15T01:29:26.620Z,12.38
2017-04-15T01:29:48.335Z,12.35
2017-04-15T01:30:14.901Z,12.36
2017-04-15T01:30:36.596Z,12.35
2017-04-15T01:30:58.308Z,12.32
2017-04-15T01:31:20.021Z,12.26
2017-04-15T01:31:41.809Z,12.24
2017-04-15T01:32:13.056Z,12.32
2017-04-15T01:32:34.745Z,12.35
2017-04-15T01:32:59.375Z,12.27
2017-04-15T01:33:21.086Z,12.17
2017-04-15T01:33:42.810Z,12.23
2017-04-15T01:34:04.514Z,12.29
2017-04-15T01:34:26.308Z,12.32
2017-04-15T01:34:48.015Z,12.26
2017-04-15T01:35:14.491Z,12.25
2017-04-15T01:35:36.193Z,12.22
2017-04-15T01:36:00.615Z,12.17
2017-04-15T01:36:22.329Z,12.11
2017-04-15T01:36:44.044Z,12.05
2017-04-15T01:37:05.760Z,12.07
2017-04-15T01:37:27.544Z,12.14
2017-04-15T01:37:58.799Z,12.17
2017-04-15T01:38:20.537Z,12.15
2017-04-15T01:38:42.340Z,12.18
2017-04-15T01:39:08.841Z,12.24
2017-04-15T01:39:30.547Z,12.29
2017-04-15T01:39:52.329Z,12.28
2017-04-15T01:40:23.574Z,12.20
2017-04-15T01:40:45.273Z,12.15
2017-04-15T01:41:07.071Z,12.10
2017-04-15T01:41:28.781Z,12.00
2017-04-15T01:41:52.903Z,12.02
2017-04-15T01:42:19.467Z,12.01
2017-04-15T01:42:41.192Z,11.96
2017-04-15T01:43:12.448Z,11.99
2017-04-15T01:43:34.284Z,11.98
2017-04-15T01:44:00.779Z,11.97
2017-04-15T01:44:22.499Z,11.96
2017-04-15T01:44:44.179Z,11.97
2017-04-15T01:45:13.254Z,11.93
2017-04-15T01:45:39.747Z,11.94
2017-04-15T01:46:01.443Z,12.00
2017-04-15T01:46:23.158Z,11.89
2017-04-15T01:46:44.963Z,11.87
2017-04-15T01:47:47.561Z,11.97
2017-04-15T01:48:09.264Z,12.06
2017-04-15T01:48:33.772Z,12.15
2017-04-15T01:48:55.474Z,12.14
2017-04-15T01:49:17.165Z,12.25
2017-04-15T01:49:38.974Z,12.30
2017-04-15T01:50:03.511Z,12.32
2017-04-15T01:50:25.200Z,12.40
2017-04-15T01:50:51.673Z,12.37
2017-04-15T01:51:13.383Z,12.37
2017-04-15T01:51:35.089Z,12.33
2017-04-15T01:52:01.598Z,12.34
2017-04-15T01:52:23.419Z,12.32
2017-04-15T01:52:49.907Z,12.35
2017-04-15T01:53:13.823Z,12.35
2017-04-15T01:53:43.122Z,12.33
2017-04-15T01:54:14.380Z,12.34
2017-04-15T01:54:36.076Z,12.29
2017-04-15T01:55:02.570Z,12.25
2017-04-15T01:55:29.258Z,12.29
2017-04-15T01:55:51.077Z,12.36
2017-04-15T01:56:12.769Z,12.42
2017-04-15T01:56:42.286Z,12.44
2017-04-15T01:57:03.970Z,12.42
2017-04-15T01:57:30.451Z,12.41
2017-04-15T01:57:52.175Z,12.42
2017-04-15T01:58:28.211Z,12.30
2017-04-15T01:58:50.588Z,12.29
2017-04-15T01:59:21.862Z,12.18
2017-04-15T01:59:43.558Z,12.21
2017-04-15T02:00:05.349Z,12.21
2017-04-15T02:00:27.058Z,12.24
2017-04-15T02:00:48.764Z,12.29
2017-04-15T02:01:10.468Z,12.29
2017-04-15T02:01:39.655Z,12.27
2017-04-15T02:02:03.370Z,12.15
2017-04-15T02:02:25.121Z,12.07
2017-04-15T02:02:46.872Z,12.01
2017-04-15T02:03:10.784Z,12.03
2017-04-15T02:03:39.330Z,12.04
2017-04-15T02:04:00.986Z,12.07
2017-04-15T02:04:32.282Z,12.08
2017-04-15T02:04:53.979Z,12.10
2017-04-15T02:05:15.913Z,12.16
2017-04-15T02:05:44.599Z,12.16
2017-04-15T02:06:08.981Z,12.18
2017-04-15T02:07:11.344Z,12.24
2017-04-15T02:07:33.141Z,12.24
2017-04-15T02:08:09.171Z,12.25
2017-04-15T02:08:33.653Z,12.26
2017-04-15T02:09:09.689Z,12.16
2017-04-15T02:09:34.004Z,12.19
2017-04-15T02:09:55.835Z,12.21
2017-04-15T02:10:17.526Z,12.22
2017-04-15T02:10:39.218Z,12.27
2017-04-15T02:11:00.920Z,12.05
2017-04-15T02:11:22.618Z,11.98
2017-04-15T02:11:44.331Z,11.93
2017-04-15T02:12:06.160Z,11.95
2017-04-15T02:12:32.614Z,11.86
2017-04-15T02:12:54.341Z,11.85
2017-04-15T02:13:16.041Z,11.87
2017-04-15T02:13:37.852Z,11.89
2017-04-15T02:13:59.578Z,11.85
2017-04-15T02:14:21.296Z,11.82
2017-04-15T02:14:49.869Z,11.79
2017-04-15T02:15:16.356Z,11.77
2017-04-15T02:15:45.046Z,11.70
2017-04-15T02:16:06.749Z,11.73
2017-04-15T02:16:38.013Z,11.83
2017-04-15T02:16:59.729Z,11.81
2017-04-15T02:17:31.004Z,11.85
2017-04-15T02:17:52.704Z,11.81
2017-04-15T02:18:23.960Z,11.80
2017-04-15T02:18:45.645Z,11.83
2017-04-15T02:19:07.343Z,11.87
2017-04-15T02:19:29.095Z,11.89
2017-04-15T02:19:50.990Z,11.88
2017-04-15T02:20:22.264Z,11.95
2017-04-15T02:20:43.943Z,11.98
2017-04-15T02:21:10.444Z,12.00
2017-04-15T02:21:34.257Z,12.02
2017-04-15T02:21:55.966Z,12.06
2017-04-15T02:22:22.334Z,12.10
2017-04-15T02:22:48.818Z,12.10
2017-04-15T02:23:10.818Z,11.98
2017-04-15T02:23:37.298Z,11.97
2017-04-15T02:24:03.671Z,12.04
2017-04-15T02:24:39.670Z,12.13
2017-04-15T02:25:03.949Z,12.08
2017-04-15T02:25:25.663Z,12.08
2017-04-15T02:25:54.752Z,12.13
2017-04-15T02:26:28.225Z,12.19
2017-04-15T02:26:59.481Z,12.08
2017-04-15T02:27:21.215Z,12.13
2017-04-15T02:27:45.840Z,12.15
2017-04-15T02:28:07.555Z,12.13
2017-04-15T02:28:32.024Z,12.03
2017-04-15T02:29:34.414Z,11.97
2017-04-15T02:29:58.120Z,12.02
2017-04-15T02:30:19.818Z,12.10
2017-04-15T02:30:48.356Z,12.10
2017-04-15T02:31:10.074Z,12.11
2017-04-15T02:31:33.993Z,12.15
2017-04-15T02:31:55.697Z,12.11
2017-04-15T02:32:58.306Z,12.08
2017-04-15T02:33:22.025Z,12.08
2017-04-15T02:33:46.484Z,12.13
2017-04-15T02:34:08.103Z,12.15
2017-04-15T02:34:36.998Z,12.01
2017-04-15T02:35:01.538Z,11.90
2017-04-15T02:35:23.132Z,11.86
2017-04-15T02:35:47.704Z,11.74
2017-04-15T02:36:09.417Z,11.76
2017-04-15T02:36:31.122Z,11.80
2017-04-15T02:36:52.847Z,11.93
2017-04-15T02:37:24.113Z,12.04
2017-04-15T02:37:48.223Z,11.98
2017-04-15T02:38:12.745Z,11.88
2017-04-15T02:38:34.440Z,11.92
2017-04-15T02:38:56.160Z,11.86
2017-04-15T02:39:22.745Z,11.83
2017-04-15T02:39:47.093Z,11.76
2017-04-15T02:40:16.152Z,11.73
2017-04-15T02:40:42.575Z,11.67
2017-04-15T02:41:04.265Z,11.64
2017-04-15T02:41:25.993Z,11.62
2017-04-15T02:41:52.584Z,11.67
2017-04-15T02:42:14.297Z,11.67
2017-04-15T02:42:45.554Z,11.56
2017-04-15T02:43:07.243Z,11.58
2017-04-15T02:43:35.757Z,11.61
2017-04-15T02:44:02.353Z,11.58
2017-04-15T02:44:29.125Z,11.54
2017-04-15T02:45:02.529Z,11.54
2017-04-15T02:45:26.723Z,11.55
2017-04-15T02:45:55.245Z,11.62
2017-04-15T02:46:16.917Z,11.63
2017-04-15T02:46:45.920Z,11.60
2017-04-15T02:47:04.977Z,11.66
2017-04-15T02:47:29.660Z,11.71
2017-04-15T02:47:56.144Z,11.79
2017-04-15T02:48:20.299Z,11.91
2017-04-15T02:48:49.605Z,11.90
2017-04-15T02:49:52.106Z,12.00
2017-04-15T02:50:25.834Z,11.96
2017-04-15T02:50:47.016Z,12.04
2017-04-15T02:51:16.498Z,12.13
2017-04-15T02:51:45.799Z,12.14
2017-04-15T02:52:14.251Z,12.10
2017-04-15T02:52:38.605Z,12.08
2017-04-15T02:53:00.425Z,12.03
2017-04-15T02:53:36.464Z,12.06
2017-04-15T02:54:06.163Z,12.08
2017-04-15T02:54:32.637Z,12.13
2017-04-15T02:54:56.917Z,12.15
2017-04-15T02:55:26.255Z,12.03
2017-04-15T02:55:49.401Z,11.88
2017-04-15T02:56:21.398Z,11.89
2017-04-15T02:56:43.107Z,11.87
2017-04-15T02:57:04.831Z,11.81
2017-04-15T02:57:41.432Z,11.63
2017-04-15T02:58:14.901Z,11.63
2017-04-15T02:58:44.276Z,11.74
2017-04-15T02:59:15.102Z,11.85
2017-04-15T02:59:36.822Z,11.79
2017-04-15T03:00:05.283Z,11.74
2017-04-15T03:00:29.499Z,11.66
2017-04-15T03:00:56.004Z,11.73
2017-04-15T03:01:21.838Z,11.65
2017-04-15T03:01:46.197Z,11.70
2017-04-15T03:02:07.969Z,11.68
2017-04-15T03:02:39.357Z,11.60
2017-04-15T03:03:10.225Z,11.56
2017-04-15T03:03:39.109Z,11.47
2017-04-15T03:04:09.918Z,11.47
2017-04-15T03:04:36.407Z,11.50
2017-04-15T03:04:58.203Z,11.51
2017-04-15T03:05:19.918Z,11.58
2017-04-15T03:05:44.251Z,11.61
2017-04-15T03:06:05.961Z,11.62
2017-04-15T03:06:38.096Z,11.52
2017-04-15T03:07:01.775Z,11.41
2017-04-15T03:07:28.279Z,11.33
2017-04-15T03:07:53.033Z,11.37
2017-04-15T03:08:24.307Z,11.37
2017-04-15T03:08:46.004Z,11.32
2017-04-15T03:09:07.695Z,11.31
2017-04-15T03:09:29.454Z,11.28
2017-04-15T03:09:55.862Z,11.46
2017-04-15T03:10:19.752Z,11.59
2017-04-15T03:10:41.380Z,11.66
2017-04-15T03:11:07.975Z,11.61
2017-04-15T03:11:31.781Z,11.60
2017-04-15T03:11:55.438Z,11.53
2017-04-15T03:12:19.354Z,11.51
2017-04-15T03:12:41.149Z,11.47
2017-04-15T03:13:15.023Z,11.51
2017-04-15T03:13:36.865Z,11.43
2017-04-15T03:13:58.577Z,11.45
2017-04-15T03:14:20.290Z,11.41
2017-04-15T03:14:47.076Z,11.50
2017-04-15T03:15:20.282Z,11.51
2017-04-15T03:15:46.718Z,11.54
2017-04-15T03:16:13.270Z,11.55
2017-04-15T03:16:35.115Z,11.60
2017-04-15T03:17:06.466Z,11.66
2017-04-15T03:17:30.223Z,11.64
2017-04-15T03:18:01.466Z,11.68
2017-04-15T03:18:33.095Z,11.53
2017-04-15T03:18:54.833Z,11.49
2017-04-15T03:19:26.074Z,11.45
2017-04-15T03:19:55.255Z,11.35
2017-04-15T03:20:19.972Z,11.34
2017-04-15T03:20:48.859Z,11.30
2017-04-15T03:21:27.375Z,11.32
2017-04-15T03:21:56.668Z,11.36
2017-04-15T03:23:03.839Z,11.26
2017-04-15T03:23:25.561Z,11.17
2017-04-15T03:23:54.176Z,11.24
2017-04-15T03:24:15.856Z,11.24
2017-04-15T03:24:37.593Z,11.22
2017-04-15T03:25:51.722Z,11.10
2017-04-15T03:26:16.074Z,11.11
2017-04-15T03:26:40.461Z,11.18
2017-04-15T03:27:39.689Z,11.24
2017-04-15T03:28:15.734Z,11.34
2017-04-15T03:28:40.265Z,11.30
2017-04-15T03:29:56.941Z,11.29
2017-04-15T03:30:23.516Z,11.29
2017-04-15T03:31:16.800Z,11.31
2017-04-15T03:31:40.568Z,11.18
2017-04-15T03:32:09.720Z,11.18
2017-04-15T03:32:36.458Z,11.20
2017-04-15T03:33:07.579Z,11.25
2017-04-15T03:34:26.625Z,11.25
2017-04-15T03:34:57.904Z,11.15
2017-04-15T03:35:19.700Z,11.11
2017-04-15T03:36:31.231Z,11.19
2017-04-15T03:36:58.578Z,11.25
2017-04-15T03:37:27.900Z,11.20
2017-04-15T03:37:57.238Z,11.22
2017-04-15T03:38:19.002Z,11.21
2017-04-15T03:38:48.438Z,11.29
2017-04-15T03:39:12.771Z,11.38
2017-04-15T03:39:43.698Z,11.44
2017-04-15T03:40:14.871Z,11.57
2017-04-15T03:40:41.183Z,11.58
2017-04-15T03:41:09.800Z,11.64
2017-04-15T03:41:37.686Z,11.72
2017-04-15T03:42:08.063Z,11.75
2017-04-15T03:42:36.918Z,11.66
2017-04-15T03:43:01.252Z,11.66
2017-04-15T03:43:27.744Z,11.62
2017-04-15T03:43:49.572Z,11.62
2017-04-15T03:44:54.259Z,11.62
2017-04-15T03:45:21.583Z,11.67
2017-04-15T03:45:45.974Z,11.55
2017-04-15T03:46:19.807Z,11.39
2017-04-15T03:46:53.837Z,11.22
2017-04-15T03:47:15.532Z,11.21
2017-04-15T03:47:39.920Z,11.25
2017-04-15T03:48:09.300Z,11.28
2017-04-15T03:48:40.793Z,11.25
2017-04-15T03:49:04.917Z,11.25
2017-04-15T03:49:36.359Z,11.11
2017-04-15T03:50:22.254Z,11.12
2017-04-15T03:51:14.930Z,11.15
2017-04-15T03:51:40.842Z,11.15
2017-04-15T03:52:06.637Z,11.13
2017-04-15T03:52:37.995Z,11.05
2017-04-15T03:53:01.928Z,11.08
2017-04-15T03:53:26.298Z,11.06
2017-04-15T03:53:48.038Z,11.04
2017-04-15T03:54:14.616Z,10.99
2017-04-15T03:54:43.896Z,10.97
2017-04-15T03:55:56.037Z,11.05
2017-04-15T03:56:24.974Z,11.05
2017-04-15T03:56:51.106Z,11.07
2017-04-15T03:57:25.093Z,10.89
2017-04-15T03:57:53.973Z,10.99
2017-04-15T03:58:22.800Z,10.88
2017-04-15T03:58:44.467Z,10.93
2017-04-15T03:59:17.943Z,10.93
2017-04-15T03:59:49.269Z,11.03
2017-04-15T04:00:13.465Z,11.09
2017-04-15T04:00:50.559Z,11.07
2017-04-15T04:01:14.460Z,11.11
2017-04-15T04:01:41.040Z,11.08
2017-04-15T04:02:13.165Z,11.05
2017-04-15T04:02:34.877Z,11.00
2017-04-15T04:03:10.919Z,11.05
2017-04-15T04:03:33.498Z,11.17
2017-04-15T04:04:09.535Z,11.15
2017-04-15T04:04:34.071Z,11.13
2017-04-15T04:04:59.827Z,11.17
2017-04-15T04:05:33.161Z,11.22
2017-04-15T04:05:59.699Z,11.20
2017-04-15T04:06:24.230Z,11.05
2017-04-15T04:07:00.859Z,11.07
2017-04-15T04:07:29.695Z,11.07
2017-04-15T04:07:59.139Z,11.02
2017-04-15T04:08:28.448Z,10.99
2017-04-15T04:08:57.749Z,10.96
2017-04-15T04:09:29.044Z,10.81
2017-04-15T04:09:52.982Z,10.78
2017-04-15T04:10:14.879Z,10.85
2017-04-15T04:10:36.580Z,10.94
2017-04-15T04:11:03.096Z,10.97
2017-04-15T04:11:34.962Z,11.02
2017-04-15T04:12:08.838Z,10.98
2017-04-15T04:12:42.215Z,11.10
2017-04-15T04:13:17.948Z,11.17
2017-04-15T04:14:18.060Z,11.11
2017-04-15T04:14:51.083Z,10.91
2017-04-15T04:15:12.815Z,10.98
2017-04-15T04:16:06.572Z,11.04
2017-04-15T04:16:35.093Z,10.91
2017-04-15T04:17:01.929Z,10.87
2017-04-15T04:17:43.357Z,10.93
2017-04-15T04:18:07.262Z,10.84
2017-04-15T04:18:43.317Z,10.97
2017-04-15T04:19:12.471Z,11.12
2017-04-15T04:20:17.317Z,11.28
2017-04-15T04:22:33.258Z,10.92
2017-04-15T04:22:59.821Z,10.97
2017-04-15T04:24:09.041Z,10.91
2017-04-15T04:24:30.749Z,10.90
2017-04-15T04:24:57.280Z,10.92
2017-04-15T04:25:23.188Z,10.94
2017-04-15T04:25:47.372Z,11.02
2017-04-15T04:26:14.464Z,10.97
2017-04-15T04:26:46.590Z,11.06
2017-04-15T04:27:23.079Z,11.14
2017-04-15T04:27:45.238Z,11.16
2017-04-15T04:29:13.058Z,11.13
2017-04-15T04:29:39.257Z,11.00
2017-04-15T04:31:11.580Z,10.84
2017-04-15T04:31:47.639Z,11.02
2017-04-15T04:32:26.230Z,11.02
2017-04-15T04:32:50.614Z,10.98
2017-04-15T04:33:22.446Z,10.95
2017-04-15T04:33:51.821Z,10.92
2017-04-15T04:34:18.051Z,10.97
2017-04-15T04:34:46.399Z,10.92
2017-04-15T04:35:18.380Z,10.98
2017-04-15T04:36:13.063Z,10.81
2017-04-15T04:36:41.427Z,10.83
2017-04-15T04:37:05.781Z,10.85
2017-04-15T04:37:36.616Z,10.85
2017-04-15T04:38:07.441Z,10.90
2017-04-15T04:38:33.791Z,10.96
2017-04-15T04:39:02.178Z,11.03
2017-04-15T04:39:30.896Z,11.12
2017-04-15T04:40:06.960Z,11.16
2017-04-15T04:40:36.458Z,11.18
2017-04-15T04:41:03.142Z,11.02
2017-04-15T04:41:29.502Z,11.05
2017-04-15T04:41:58.318Z,11.15
2017-04-15T04:42:22.449Z,11.12
2017-04-15T04:42:58.088Z,11.14
2017-04-15T04:43:35.984Z,11.06
2017-04-15T04:43:57.167Z,10.98
2017-04-15T04:44:24.442Z,10.99
2017-04-15T04:44:48.974Z,11.07
2017-04-15T04:45:18.416Z,11.08
2017-04-15T04:45:44.692Z,11.05
2017-04-15T04:46:08.492Z,10.95
2017-04-15T04:46:32.846Z,10.79
2017-04-15T04:47:06.270Z,10.75
2017-04-15T04:47:34.504Z,10.77
2017-04-15T04:48:00.856Z,10.89
2017-04-15T04:48:36.875Z,10.89
2017-04-15T04:49:09.225Z,10.95
2017-04-15T04:49:37.657Z,10.83
2017-04-15T04:50:05.936Z,10.80
2017-04-15T04:50:37.196Z,10.83
2017-04-15T04:51:06.640Z,10.87
2017-04-15T04:51:35.834Z,10.94
2017-04-15T04:52:04.815Z,10.94
2017-04-15T04:52:36.575Z,10.58
2017-04-15T04:53:13.161Z,10.70
2017-04-15T04:53:56.537Z,10.77
2017-04-15T04:54:25.892Z,10.89
2017-04-15T04:55:01.911Z,10.90
2017-04-15T04:55:44.177Z,10.91
2017-04-15T04:56:50.868Z,10.97
2017-04-15T04:57:19.245Z,11.04
2017-04-15T04:57:53.660Z,11.00
2017-04-15T04:58:19.899Z,10.96
2017-04-15T04:59:25.037Z,10.97
2017-04-15T04:59:56.520Z,10.84
2017-04-15T05:00:32.557Z,10.88
2017-04-15T05:01:07.970Z,10.78
2017-04-15T05:01:32.648Z,10.84
2017-04-15T05:01:58.989Z,10.95
2017-04-15T05:02:20.682Z,11.02
2017-04-15T05:02:48.211Z,11.02
2017-04-15T05:03:22.027Z,10.77
2017-04-15T05:04:27.681Z,10.76
2017-04-15T05:04:55.402Z,10.85
2017-04-15T05:05:32.498Z,10.82
2017-04-15T05:05:54.213Z,10.75
2017-04-15T05:06:18.553Z,10.80
2017-04-15T05:06:49.522Z,10.81
2017-04-15T05:07:19.737Z,10.74
2017-04-15T05:07:46.084Z,10.72
2017-04-15T05:08:12.035Z,10.76
2017-04-15T05:08:43.369Z,10.86
2017-04-15T05:09:09.680Z,10.77
2017-04-15T05:09:41.568Z,10.77
2017-04-15T05:10:18.849Z,10.84
2017-04-15T05:11:11.613Z,10.84
2017-04-15T05:11:35.258Z,10.90
2017-04-15T05:12:04.260Z,10.92
2017-04-15T05:12:37.602Z,10.99
2017-04-15T05:12:59.814Z,10.98
2017-04-15T05:13:27.134Z,10.91
2017-04-15T05:13:55.691Z,10.90
2017-04-15T05:14:37.150Z,10.91
2017-04-15T05:15:01.601Z,11.00
2017-04-15T05:15:30.734Z,11.00
2017-04-15T05:16:06.101Z,10.93
2017-04-15T05:16:30.845Z,10.85
2017-04-15T05:16:57.757Z,10.76
2017-04-15T05:17:59.941Z,10.67
2017-04-15T05:18:29.190Z,10.79
2017-04-15T05:19:28.362Z,10.78
2017-04-15T05:19:54.726Z,10.72
2017-04-15T05:20:20.660Z,10.79
2017-04-15T05:20:44.389Z,10.80
2017-04-15T05:21:08.322Z,10.84
2017-04-15T05:22:41.701Z,10.74
2017-04-15T05:23:12.733Z,10.74
2017-04-15T05:23:44.444Z,10.76
2017-04-15T05:24:06.138Z,10.85
2017-04-15T05:24:30.222Z,10.83
2017-04-15T05:25:04.193Z,10.81
2017-04-15T05:25:38.473Z,10.86
2017-04-15T05:26:04.864Z,10.89
2017-04-15T05:26:38.220Z,10.74
2017-04-15T05:27:06.490Z,10.72
2017-04-15T05:27:30.911Z,10.80
2017-04-15T05:27:57.739Z,10.82
2017-04-15T05:28:28.564Z,10.79
2017-04-15T05:28:59.920Z,10.92
2017-04-15T05:29:16.139Z,10.94
2017-04-15T05:29:37.898Z,10.98
2017-04-15T05:29:59.619Z,11.02
2017-04-15T05:30:37.854Z,11.11
2017-04-15T05:31:09.024Z,11.18
2017-04-15T05:31:38.540Z,11.21
2017-04-15T05:32:05.420Z,11.15
2017-04-15T05:32:39.350Z,11.12
2017-04-15T05:33:11.147Z,11.01
2017-04-15T05:33:35.417Z,11.00
2017-04-15T05:34:06.812Z,11.03
2017-04-15T05:34:34.153Z,10.98
2017-04-15T05:35:03.054Z,11.17
2017-04-15T05:35:32.339Z,11.28
2017-04-15T05:36:03.454Z,11.15
2017-04-15T05:36:30.582Z,11.08
2017-04-15T05:37:05.958Z,11.07
2017-04-15T05:37:37.197Z,11.07
2017-04-15T05:38:06.333Z,11.11
2017-04-15T05:38:31.054Z,11.06
2017-04-15T05:39:40.289Z,11.10
2017-04-15T05:40:35.606Z,10.99
2017-04-15T05:42:09.099Z,11.05
2017-04-15T05:42:40.038Z,10.87
2017-04-15T05:43:11.412Z,10.96
2017-04-15T05:43:50.242Z,11.00
2017-04-15T05:44:09.422Z,10.78
2017-04-15T05:45:14.474Z,10.87
2017-04-15T05:45:52.778Z,10.71
2017-04-15T05:46:16.636Z,10.58
2017-04-15T05:46:53.539Z,10.61
2017-04-15T05:47:21.805Z,10.67
2017-04-15T05:47:53.219Z,10.72
2017-04-15T05:48:22.651Z,10.86
2017-04-15T05:48:48.816Z,10.93
2017-04-15T05:49:16.117Z,11.01
2017-04-15T05:49:50.636Z,11.12
2017-04-15T05:50:16.974Z,11.09
2017-04-15T05:50:38.774Z,11.09
2017-04-15T05:51:03.198Z,11.07
2017-04-15T05:51:39.135Z,10.99
2017-04-15T05:52:56.823Z,11.18
2017-04-15T05:53:24.701Z,11.21
2017-04-15T05:54:01.112Z,11.20
2017-04-15T05:54:27.305Z,11.12
2017-04-15T05:54:53.663Z,10.99
2017-04-15T05:55:22.893Z,10.88
2017-04-15T05:56:25.442Z,11.04
2017-04-15T05:56:49.758Z,11.03
2017-04-15T05:57:16.460Z,11.05
2017-04-15T05:57:48.873Z,11.12
2017-04-15T05:58:10.640Z,11.20
2017-04-15T05:58:38.007Z,11.24
2017-04-15T05:59:14.825Z,11.31
2017-04-15T05:59:38.131Z,11.27
2017-04-15T06:00:09.535Z,11.20
2017-04-15T06:01:18.750Z,10.78
2017-04-15T06:02:52.638Z,10.92
2017-04-15T06:03:26.228Z,10.70
2017-04-15T06:04:37.313Z,10.84
2017-04-15T06:05:15.676Z,10.82
2017-04-15T06:06:16.556Z,10.99
2017-04-15T06:07:22.034Z,10.84
2017-04-15T06:07:48.418Z,10.66
2017-04-15T06:08:15.137Z,10.58
2017-04-15T06:08:42.464Z,10.64
2017-04-15T06:09:50.144Z,10.89
2017-04-15T06:10:26.038Z,10.94